createdAt,value
2019-03-21T00:01:17.171Z,97.18
2019-03-21T00:03:45.596Z,97.39
2019-03-21T00:06:14.011Z,96.38
2019-03-21T00:08:41.471Z,96.78
2019-03-21T00:11:44.972Z,96.02
2019-03-21T00:14:39.360Z,95.96
2019-03-21T00:17:06.861Z,96.83
2019-03-21T00:19:34.422Z,96.00
2019-03-21T00:22:01.883Z,95.77
2019-03-21T00:24:29.389Z,96.25
2019-03-21T00:26:56.850Z,95.74
2019-03-21T00:29:24.329Z,96.14
2019-03-21T00:31:51.853Z,96.56
2019-03-21T00:34:19.327Z,97.06
2019-03-21T00:36:46.819Z,96.56
2019-03-21T00:39:14.290Z,96.33
2019-03-21T00:41:41.785Z,96.20
2019-03-21T00:44:17.884Z,95.99
2019-03-21T00:46:38.728Z,96.27
2019-03-21T00:49:06.261Z,97.10
2019-03-21T00:51:33.784Z,97.50
2019-03-21T00:54:01.252Z,96.71
2019-03-21T00:56:29.059Z,97.05
2019-03-21T00:58:56.543Z,96.47
2019-03-21T01:01:24.042Z,95.82
2019-03-21T01:03:51.535Z,95.52
2019-03-21T01:06:19.039Z,96.00
2019-03-21T01:08:46.496Z,96.22
2019-03-21T01:11:13.989Z,95.66
2019-03-21T01:13:41.455Z,95.79
2019-03-21T01:16:08.969Z,96.32
2019-03-21T01:18:37.158Z,96.44
2019-03-21T01:21:04.675Z,96.62
2019-03-21T01:23:32.150Z,96.69
2019-03-21T01:26:00.051Z,96.49
2019-03-21T01:28:27.534Z,96.15
2019-03-21T01:30:55.014Z,96.52
2019-03-21T01:33:22.472Z,96.42
2019-03-21T01:35:49.958Z,96.09
2019-03-21T01:38:17.459Z,96.56
2019-03-21T01:40:45.790Z,96.26
2019-03-21T01:43:13.284Z,96.62
2019-03-21T01:45:40.803Z,95.68
2019-03-21T01:48:08.284Z,95.96
2019-03-21T01:50:35.928Z,96.43
2019-03-21T01:53:03.419Z,96.37
2019-03-21T01:55:30.948Z,96.36
2019-03-21T01:57:58.434Z,96.13
2019-03-21T02:00:28.415Z,96.13
2019-03-21T02:02:56.643Z,96.14
2019-03-21T02:05:24.113Z,97.08
2019-03-21T02:07:51.619Z,96.51
2019-03-21T02:10:19.204Z,96.20
2019-03-21T02:12:46.724Z,96.00
2019-03-21T02:15:14.220Z,96.41
2019-03-21T02:17:41.869Z,96.76
2019-03-21T02:20:10.928Z,96.53
2019-03-21T02:22:38.419Z,96.50
2019-03-21T02:25:08.918Z,96.50
2019-03-21T02:27:36.433Z,96.37
2019-03-21T02:30:07.348Z,96.54
2019-03-21T02:32:34.864Z,96.24
2019-03-21T02:35:02.315Z,97.79
2019-03-21T02:37:29.857Z,97.67
2019-03-21T02:39:59.739Z,97.46
2019-03-21T02:42:26.945Z,97.00
2019-03-21T02:45:07.713Z,96.86
2019-03-21T02:47:23.868Z,97.15
2019-03-21T02:49:51.390Z,96.79
2019-03-21T02:52:18.912Z,97.22
2019-03-21T02:54:46.435Z,97.17
2019-03-21T02:57:13.971Z,97.58
2019-03-21T02:59:41.450Z,97.72
2019-03-21T03:02:08.934Z,97.29
2019-03-21T03:04:36.401Z,97.35
2019-03-21T03:07:03.940Z,97.29
2019-03-21T03:09:32.053Z,97.03
2019-03-21T03:11:59.568Z,97.03
2019-03-21T03:14:27.035Z,96.05
2019-03-21T03:16:54.528Z,96.30
2019-03-21T03:19:34.127Z,96.41
2019-03-21T03:22:01.613Z,96.77
2019-03-21T03:24:30.843Z,96.59
2019-03-21T03:26:58.316Z,97.27
2019-03-21T03:29:25.776Z,97.42
2019-03-21T03:31:53.238Z,97.08
2019-03-21T03:34:20.730Z,96.47
2019-03-21T03:36:48.477Z,97.37
2019-03-21T03:39:15.917Z,97.59
2019-03-21T03:41:43.408Z,97.59
2019-03-21T03:44:10.855Z,97.74
2019-03-21T03:46:38.327Z,97.83
2019-03-21T03:49:05.814Z,97.96
2019-03-21T03:51:33.251Z,97.52
2019-03-21T03:54:00.742Z,97.52
2019-03-21T03:56:28.341Z,97.27
2019-03-21T03:58:56.278Z,96.85
2019-03-21T04:01:23.732Z,97.08
2019-03-21T04:03:51.219Z,97.12
2019-03-21T04:06:18.675Z,97.14
2019-03-21T04:08:46.164Z,96.90
2019-03-21T04:11:13.716Z,97.71
2019-03-21T04:13:41.209Z,97.97
2019-03-21T04:16:08.632Z,97.99
2019-03-21T04:18:36.186Z,97.73
2019-03-21T04:21:04.201Z,98.04
2019-03-21T04:23:31.779Z,97.87
2019-03-21T04:26:21.561Z,98.30
2019-03-21T04:28:49.062Z,97.76
2019-03-21T04:31:16.516Z,97.72
2019-03-21T04:33:44.212Z,97.43
2019-03-21T04:36:11.758Z,97.57
2019-03-21T04:38:39.230Z,97.42
2019-03-21T04:41:06.703Z,97.59
2019-03-21T04:43:34.169Z,96.95
2019-03-21T04:46:03.701Z,97.52
2019-03-21T04:48:31.042Z,96.98
2019-03-21T04:50:58.510Z,96.58
2019-03-21T04:53:25.972Z,96.25
2019-03-21T04:55:53.451Z,96.06
2019-03-21T04:58:20.940Z,96.00
2019-03-21T05:00:48.696Z,95.72
2019-03-21T05:03:16.191Z,95.87
2019-03-21T05:05:43.656Z,96.37
2019-03-21T05:08:11.430Z,95.88
2019-03-21T05:10:38.881Z,95.91
2019-03-21T05:13:06.346Z,96.20
2019-03-21T05:15:35.896Z,96.53
2019-03-21T05:18:09.635Z,96.56
2019-03-21T05:20:37.096Z,96.67
2019-03-21T05:23:04.562Z,96.25
2019-03-21T05:25:32.047Z,96.79
2019-03-21T05:27:59.552Z,96.28
2019-03-21T05:30:36.852Z,96.24
2019-03-21T05:33:04.322Z,96.65
2019-03-21T05:35:31.776Z,96.66
2019-03-21T05:37:59.550Z,96.53
2019-03-21T05:40:26.996Z,96.59
2019-03-21T05:42:58.460Z,96.46
2019-03-21T05:45:25.898Z,97.16
2019-03-21T05:47:53.367Z,96.96
2019-03-21T05:50:20.845Z,96.84
2019-03-21T05:52:48.334Z,96.78
2019-03-21T05:55:15.805Z,96.72
2019-03-21T05:57:43.420Z,96.06
2019-03-21T06:00:14.745Z,95.75
2019-03-21T06:02:42.236Z,96.04
2019-03-21T06:05:09.680Z,96.45
2019-03-21T06:08:05.036Z,96.62
2019-03-21T06:10:32.532Z,96.74
2019-03-21T06:13:00.010Z,96.50
2019-03-21T06:15:29.270Z,96.66
2019-03-21T06:18:40.346Z,96.96
2019-03-21T06:21:18.431Z,96.34
2019-03-21T06:24:02.693Z,97.14
2019-03-21T06:26:51.249Z,96.42
2019-03-21T06:29:18.722Z,97.17
2019-03-21T06:31:46.220Z,97.66
2019-03-21T06:34:13.725Z,96.81
2019-03-21T06:36:41.251Z,96.88
2019-03-21T06:39:08.899Z,96.98
2019-03-21T06:41:36.347Z,97.20
2019-03-21T06:44:04.641Z,96.34
2019-03-21T06:46:32.106Z,95.13
2019-03-21T06:48:59.572Z,95.93
2019-03-21T06:51:27.022Z,96.11
2019-03-21T06:53:54.593Z,96.28
2019-03-21T06:56:22.076Z,95.12
2019-03-21T06:58:49.544Z,95.52
2019-03-21T07:01:17.000Z,95.95
2019-03-21T07:03:44.470Z,95.02
2019-03-21T07:06:11.916Z,95.50
2019-03-21T07:08:39.417Z,94.77
2019-03-21T07:11:06.919Z,93.88
2019-03-21T07:13:34.401Z,93.85
2019-03-21T07:16:01.858Z,95.02
2019-03-21T07:18:29.329Z,94.32
2019-03-21T07:20:56.840Z,95.62
2019-03-21T07:23:24.300Z,95.02
2019-03-21T07:25:51.779Z,94.70
2019-03-21T07:28:19.251Z,93.76
2019-03-21T07:30:46.730Z,93.54
2019-03-21T07:33:14.169Z,93.74
2019-03-21T07:35:41.665Z,93.56
2019-03-21T07:38:09.411Z,93.38
2019-03-21T07:40:36.894Z,95.05
2019-03-21T07:43:04.357Z,94.29
2019-03-21T07:45:31.901Z,93.50
2019-03-21T07:47:59.325Z,93.54
2019-03-21T07:50:26.826Z,92.73
2019-03-21T07:52:54.272Z,92.88
2019-03-21T07:55:21.767Z,90.80
2019-03-21T07:57:49.256Z,91.56
2019-03-21T08:00:16.955Z,91.34
2019-03-21T08:02:44.441Z,91.74
2019-03-21T08:05:12.629Z,91.57
2019-03-21T08:07:40.069Z,91.15
2019-03-21T08:10:08.113Z,91.02
2019-03-21T08:12:35.591Z,90.98
2019-03-21T08:15:03.939Z,90.98
2019-03-21T08:17:31.376Z,89.95
2019-03-21T08:19:58.897Z,89.95
2019-03-21T08:22:26.368Z,90.26
2019-03-21T08:24:53.850Z,89.46
2019-03-21T08:27:21.670Z,89.96
2019-03-21T08:29:49.241Z,88.63
2019-03-21T08:32:16.708Z,89.20
2019-03-21T08:34:44.208Z,88.75
2019-03-21T08:37:11.675Z,89.99
2019-03-21T08:39:39.135Z,88.65
2019-03-21T08:42:06.596Z,87.84
2019-03-21T08:44:34.088Z,87.94
2019-03-21T08:47:01.530Z,88.31
2019-03-21T08:49:28.965Z,88.02
2019-03-21T08:51:56.570Z,86.95
2019-03-21T08:54:24.016Z,87.04
2019-03-21T08:56:51.610Z,86.69
2019-03-21T08:59:20.592Z,86.27
2019-03-21T09:01:48.071Z,86.40
2019-03-21T09:04:15.674Z,85.67
2019-03-21T09:06:43.166Z,85.21
2019-03-21T09:09:10.627Z,84.90
2019-03-21T09:11:38.141Z,84.60
2019-03-21T09:14:05.612Z,83.93
2019-03-21T09:16:33.084Z,84.40
2019-03-21T09:19:00.551Z,84.10
2019-03-21T09:21:28.042Z,84.01
2019-03-21T09:23:55.545Z,82.91
2019-03-21T09:26:23.045Z,83.17
2019-03-21T09:28:50.563Z,83.55
2019-03-21T09:31:18.166Z,81.10
2019-03-21T09:33:45.608Z,81.12
2019-03-21T09:36:13.086Z,80.94
2019-03-21T09:38:40.525Z,80.69
2019-03-21T09:41:08.037Z,80.74
2019-03-21T09:43:35.487Z,80.70
2019-03-21T09:46:02.984Z,79.53
2019-03-21T09:48:30.473Z,79.95
2019-03-21T09:50:57.972Z,79.51
2019-03-21T09:53:25.751Z,80.07
2019-03-21T09:55:53.272Z,78.93
2019-03-21T09:58:21.063Z,77.42
2019-03-21T10:00:48.586Z,78.35
2019-03-21T10:03:15.996Z,77.21
2019-03-21T10:05:43.500Z,77.17
2019-03-21T10:08:11.144Z,78.38
2019-03-21T10:10:38.580Z,76.85
2019-03-21T10:13:06.087Z,76.78
2019-03-21T10:15:33.586Z,75.75
2019-03-21T10:18:01.218Z,76.27
2019-03-21T10:20:28.662Z,74.53
2019-03-21T10:22:56.413Z,75.03
2019-03-21T10:25:26.498Z,74.10
2019-03-21T10:27:53.272Z,73.59
2019-03-21T10:30:37.940Z,73.74
2019-03-21T10:33:07.377Z,72.91
2019-03-21T10:35:34.832Z,72.22
2019-03-21T10:38:02.346Z,73.23
2019-03-21T10:40:29.833Z,72.72
2019-03-21T10:42:57.327Z,72.23
2019-03-21T10:45:24.803Z,71.48
2019-03-21T10:47:52.295Z,71.20
2019-03-21T10:50:27.871Z,70.00
2019-03-21T10:52:55.545Z,71.01
2019-03-21T10:55:23.004Z,68.85
2019-03-21T10:57:50.517Z,69.13
2019-03-21T11:00:17.968Z,70.17
2019-03-21T11:02:45.443Z,69.00
2019-03-21T11:05:13.255Z,69.26
2019-03-21T11:07:40.953Z,70.82
2019-03-21T11:10:08.826Z,68.37
2019-03-21T11:12:36.317Z,67.62
2019-03-21T11:15:04.678Z,67.69
2019-03-21T11:17:32.191Z,68.92
2019-03-21T11:20:00.340Z,68.94
2019-03-21T11:22:28.305Z,66.48
2019-03-21T11:24:56.547Z,66.52
2019-03-21T11:27:24.126Z,68.43
2019-03-21T11:29:51.573Z,66.40
2019-03-21T11:32:19.070Z,67.67
2019-03-21T11:34:46.535Z,66.67
2019-03-21T11:37:14.012Z,66.31
2019-03-21T11:39:41.467Z,66.50
2019-03-21T11:42:08.984Z,65.62
2019-03-21T11:44:36.449Z,64.64
2019-03-21T11:47:03.966Z,66.01
2019-03-21T11:49:33.321Z,64.31
2019-03-21T11:52:00.804Z,63.96
2019-03-21T11:54:28.359Z,63.28
2019-03-21T11:56:57.008Z,63.30
2019-03-21T11:59:24.501Z,62.04
2019-03-21T12:01:51.990Z,65.31
2019-03-21T12:04:19.607Z,64.22
2019-03-21T12:06:47.053Z,65.01
2019-03-21T12:09:14.541Z,64.99
2019-03-21T12:11:42.045Z,63.53
2019-03-21T12:14:09.575Z,63.80
2019-03-21T12:16:37.021Z,67.02
2019-03-21T12:19:04.586Z,61.89
2019-03-21T12:21:32.089Z,64.72
2019-03-21T12:23:59.702Z,60.32
2019-03-21T12:26:27.161Z,61.99
2019-03-21T12:28:54.647Z,61.69
2019-03-21T12:31:22.083Z,61.68
2019-03-21T12:33:49.572Z,60.27
2019-03-21T12:36:17.031Z,62.02
2019-03-21T12:38:44.503Z,59.80
2019-03-21T12:41:12.011Z,61.97
2019-03-21T12:43:39.491Z,59.89
2019-03-21T12:46:06.951Z,60.66
2019-03-21T12:48:34.509Z,60.66
2019-03-21T12:51:02.007Z,61.44
2019-03-21T12:53:29.546Z,60.68
2019-03-21T12:55:57.102Z,62.63
2019-03-21T12:58:24.618Z,61.22
2019-03-21T13:00:52.072Z,63.44
2019-03-21T13:03:19.559Z,61.17
2019-03-21T13:05:47.016Z,59.87
2019-03-21T13:08:14.505Z,60.82
2019-03-21T13:10:41.967Z,59.34
2019-03-21T13:13:09.532Z,61.51
2019-03-21T13:15:37.063Z,62.79
2019-03-21T13:18:05.691Z,59.43
2019-03-21T13:20:33.219Z,62.08
2019-03-21T13:23:00.741Z,60.27
2019-03-21T13:25:28.272Z,61.87
2019-03-21T13:27:56.121Z,59.09
2019-03-21T13:30:23.612Z,60.29
2019-03-21T13:32:51.064Z,58.37
2019-03-21T13:35:18.560Z,56.20
2019-03-21T13:37:46.020Z,57.69
2019-03-21T13:40:14.054Z,55.64
2019-03-21T13:42:41.509Z,55.46
2019-03-21T13:45:09.246Z,57.90
2019-03-21T13:47:36.697Z,58.69
2019-03-21T13:50:04.963Z,57.49
2019-03-21T13:52:32.500Z,56.27
2019-03-21T13:54:59.982Z,56.37
2019-03-21T13:57:27.467Z,57.63
2019-03-21T13:59:54.938Z,58.82
2019-03-21T14:02:22.422Z,57.88
2019-03-21T14:04:49.894Z,57.74
2019-03-21T14:07:17.349Z,56.95
2019-03-21T14:09:44.831Z,58.13
2019-03-21T14:12:12.327Z,55.77
2019-03-21T14:14:39.839Z,55.65
2019-03-21T14:17:07.284Z,54.54
2019-03-21T14:19:34.784Z,57.60
2019-03-21T14:22:02.269Z,55.98
2019-03-21T14:24:29.729Z,55.13
2019-03-21T14:26:57.200Z,54.58
2019-03-21T14:29:24.726Z,57.38
2019-03-21T14:31:52.200Z,58.02
2019-03-21T14:34:19.706Z,58.03
2019-03-21T14:36:47.160Z,56.41
2019-03-21T14:39:14.648Z,55.09
2019-03-21T14:41:42.134Z,56.46
2019-03-21T14:44:09.594Z,56.40
2019-03-21T14:46:37.121Z,55.05
2019-03-21T14:49:04.585Z,56.80
2019-03-21T14:51:32.061Z,54.05
2019-03-21T14:53:59.691Z,55.47
2019-03-21T14:56:27.216Z,54.89
2019-03-21T14:58:54.664Z,57.05
2019-03-21T15:01:22.163Z,54.68
2019-03-21T15:03:49.620Z,57.00
2019-03-21T15:06:17.109Z,58.03
2019-03-21T15:08:44.664Z,57.24
2019-03-21T15:11:16.872Z,59.53
2019-03-21T15:13:41.562Z,57.91
2019-03-21T15:16:09.039Z,57.59
2019-03-21T15:18:36.538Z,57.93
2019-03-21T15:21:04.029Z,57.87
2019-03-21T15:23:40.082Z,56.76
2019-03-21T15:26:00.914Z,56.92
2019-03-21T15:28:28.441Z,58.41
2019-03-21T15:30:55.915Z,58.56
2019-03-21T15:33:23.522Z,59.52
2019-03-21T15:35:51.042Z,57.22
2019-03-21T15:38:18.599Z,57.95
2019-03-21T15:40:46.031Z,56.90
2019-03-21T15:43:13.520Z,58.14
2019-03-21T15:45:41.028Z,59.79
2019-03-21T15:48:08.479Z,59.13
2019-03-21T15:50:37.978Z,60.26
2019-03-21T15:53:05.778Z,58.94
2019-03-21T15:55:33.473Z,58.39
2019-03-21T15:58:00.992Z,56.84
2019-03-21T16:00:31.203Z,57.19
2019-03-21T16:02:58.763Z,56.29
2019-03-21T16:05:26.312Z,58.72
2019-03-21T16:07:53.765Z,58.13
2019-03-21T16:10:21.260Z,57.04
2019-03-21T16:12:48.736Z,54.49
2019-03-21T16:15:16.247Z,55.70
2019-03-21T16:17:43.724Z,56.88
2019-03-21T16:20:11.201Z,58.73
2019-03-21T16:22:38.753Z,60.56
2019-03-21T16:25:06.844Z,61.65
2019-03-21T16:27:34.645Z,61.26
2019-03-21T16:30:02.230Z,61.98
2019-03-21T16:32:29.713Z,62.23
2019-03-21T16:34:57.263Z,62.36
2019-03-21T16:37:24.760Z,62.95
2019-03-21T16:39:52.307Z,63.38
2019-03-21T16:42:19.789Z,64.39
2019-03-21T16:44:47.272Z,64.54
2019-03-21T16:47:14.774Z,65.60
2019-03-21T16:49:42.333Z,66.76
2019-03-21T16:52:11.902Z,67.98
2019-03-21T16:54:40.267Z,67.81
2019-03-21T16:57:08.608Z,68.48
2019-03-21T16:59:36.358Z,68.52
2019-03-21T17:02:03.955Z,69.55
2019-03-21T17:04:31.409Z,70.06
2019-03-21T17:06:58.903Z,70.44
2019-03-21T17:09:26.428Z,71.17
2019-03-21T17:11:53.959Z,71.74
2019-03-21T17:14:21.424Z,72.46
2019-03-21T17:16:48.936Z,71.92
2019-03-21T17:19:16.494Z,72.39
2019-03-21T17:21:44.063Z,72.56
2019-03-21T17:24:11.551Z,73.24
2019-03-21T17:26:39.075Z,73.02
2019-03-21T17:29:07.467Z,72.83
2019-03-21T17:31:36.075Z,72.95
2019-03-21T17:34:04.766Z,73.31
2019-03-21T17:36:32.723Z,73.78
2019-03-21T17:39:00.206Z,73.73
2019-03-21T17:41:27.743Z,74.09
2019-03-21T17:43:55.243Z,74.43
2019-03-21T17:46:22.754Z,74.78
2019-03-21T17:48:50.227Z,76.79
2019-03-21T17:51:17.807Z,76.39
2019-03-21T17:53:45.393Z,77.07
2019-03-21T17:56:12.885Z,78.13
2019-03-21T17:58:40.697Z,79.87
2019-03-21T18:01:08.598Z,79.94
2019-03-21T18:03:36.301Z,81.20
2019-03-21T18:06:03.784Z,82.17
2019-03-21T18:08:31.291Z,82.74
2019-03-21T18:10:58.790Z,83.90
2019-03-21T18:13:26.554Z,84.00
2019-03-21T18:15:54.075Z,83.72
2019-03-21T18:18:21.618Z,84.75
2019-03-21T18:20:49.073Z,85.21
2019-03-21T18:23:16.646Z,86.22
2019-03-21T18:25:44.108Z,84.14
2019-03-21T18:28:11.620Z,85.36
2019-03-21T18:30:39.089Z,85.53
2019-03-21T18:33:06.580Z,83.71
2019-03-21T18:35:34.043Z,86.53
2019-03-21T18:38:01.559Z,86.76
2019-03-21T18:40:29.075Z,85.42
2019-03-21T18:42:56.585Z,84.35
2019-03-21T18:45:24.082Z,84.51
2019-03-21T18:47:51.963Z,86.44
2019-03-21T18:50:19.420Z,87.68
2019-03-21T18:52:47.143Z,87.99
2019-03-21T18:55:14.594Z,88.68
2019-03-21T18:57:42.122Z,89.72
2019-03-21T19:00:10.753Z,90.35
2019-03-21T19:02:38.235Z,91.07
2019-03-21T19:05:06.355Z,91.16
2019-03-21T19:07:33.878Z,91.17
2019-03-21T19:10:01.330Z,91.78
2019-03-21T19:12:28.848Z,92.39
2019-03-21T19:14:56.297Z,92.97
2019-03-21T19:17:25.883Z,93.60
2019-03-21T19:19:53.427Z,93.30
2019-03-21T19:22:20.916Z,93.18
2019-03-21T19:24:48.466Z,92.56
2019-03-21T19:27:15.896Z,93.45
2019-03-21T19:29:43.379Z,94.44
2019-03-21T19:32:10.838Z,94.06
2019-03-21T19:34:38.329Z,92.83
2019-03-21T19:37:05.804Z,93.82
2019-03-21T19:39:33.322Z,94.70
2019-03-21T19:42:00.807Z,94.55
2019-03-21T19:44:28.293Z,94.69
2019-03-21T19:46:55.742Z,94.90
2019-03-21T19:49:23.253Z,95.25
2019-03-21T19:51:50.776Z,95.82
2019-03-21T19:54:18.356Z,96.25
2019-03-21T19:56:45.879Z,97.05
2019-03-21T19:59:13.461Z,97.04
2019-03-21T20:01:41.202Z,96.54
2019-03-21T20:04:08.702Z,96.25
2019-03-21T20:06:36.384Z,96.43
2019-03-21T20:09:06.357Z,96.98
2019-03-21T20:11:34.003Z,97.08
2019-03-21T20:14:03.864Z,98.22
2019-03-21T20:16:31.051Z,96.94
2019-03-21T20:18:59.356Z,97.97
2019-03-21T20:21:26.942Z,98.21
2019-03-21T20:23:54.519Z,98.06
2019-03-21T20:26:22.137Z,96.85
2019-03-21T20:28:49.988Z,98.06
2019-03-21T20:31:17.531Z,98.16
2019-03-21T20:33:45.320Z,98.11
2019-03-21T20:36:13.285Z,98.62
2019-03-21T20:38:40.918Z,98.74
2019-03-21T20:41:08.938Z,98.61
2019-03-21T20:43:36.522Z,100.00
2019-03-21T20:46:04.010Z,100.00
2019-03-21T20:48:30.951Z,99.69
2019-03-21T20:50:58.548Z,100.00
2019-03-21T20:53:26.454Z,100.00
2019-03-21T20:55:54.205Z,100.00
2019-03-21T20:58:21.870Z,100.00
2019-03-21T21:00:49.355Z,100.00
2019-03-21T21:03:17.447Z,100.00
2019-03-21T21:05:45.043Z,100.00
2019-03-21T21:08:12.797Z,100.00
2019-03-21T21:10:40.370Z,100.00
2019-03-21T21:13:07.928Z,100.00
2019-03-21T21:15:35.752Z,100.00
2019-03-21T21:18:03.552Z,100.00
2019-03-21T21:20:31.069Z,100.00
2019-03-21T21:22:58.571Z,100.00
2019-03-21T21:25:26.120Z,100.00
2019-03-21T21:27:53.877Z,100.00
2019-03-21T21:30:21.488Z,100.00
2019-03-21T21:32:48.980Z,98.61
2019-03-21T21:35:16.530Z,99.85
2019-03-21T21:37:45.247Z,100.00
2019-03-21T21:40:13.044Z,100.00
2019-03-21T21:42:40.495Z,99.68
2019-03-21T21:45:08.272Z,100.00
2019-03-21T21:47:35.822Z,100.00
2019-03-21T21:50:05.270Z,100.00
2019-03-21T21:52:41.541Z,100.00
2019-03-21T21:55:02.262Z,100.00
2019-03-21T21:57:29.839Z,100.00
2019-03-21T21:59:57.431Z,100.00
2019-03-21T22:02:24.910Z,100.00
2019-03-21T22:04:52.428Z,100.00
2019-03-21T22:07:19.887Z,100.00
2019-03-21T22:09:47.430Z,100.00
2019-03-21T22:12:14.990Z,100.00
2019-03-21T22:14:42.506Z,100.00
2019-03-21T22:17:09.963Z,100.00
2019-03-21T22:19:37.529Z,100.00
2019-03-21T22:22:05.167Z,100.00
2019-03-21T22:24:32.676Z,100.00
2019-03-21T22:27:00.157Z,100.00
2019-03-21T22:29:27.713Z,100.00
2019-03-21T22:31:55.169Z,100.00
2019-03-21T22:34:22.667Z,100.00
2019-03-21T22:36:50.208Z,100.00
2019-03-21T22:39:18.153Z,100.00
2019-03-21T22:41:45.717Z,100.00
2019-03-21T22:44:13.254Z,100.00
2019-03-21T22:46:40.808Z,100.00
2019-03-21T22:49:08.264Z,100.00
2019-03-21T22:51:35.744Z,100.00
2019-03-21T22:54:03.189Z,100.00
2019-03-21T22:56:40.831Z,100.00
2019-03-21T22:59:00.238Z,100.00
2019-03-21T23:01:27.731Z,100.00
2019-03-21T23:03:55.222Z,100.00
2019-03-21T23:06:22.752Z,100.00
2019-03-21T23:08:50.305Z,100.00
2019-03-21T23:11:17.837Z,100.00
2019-03-21T23:13:45.333Z,100.00
2019-03-21T23:16:12.841Z,100.00
2019-03-21T23:18:40.307Z,100.00
2019-03-21T23:21:07.797Z,100.00
2019-03-21T23:23:35.240Z,100.00
2019-03-21T23:26:02.778Z,100.00
2019-03-21T23:28:30.265Z,100.00
2019-03-21T23:30:57.903Z,100.00
2019-03-21T23:33:25.374Z,100.00
2019-03-21T23:35:52.895Z,100.00
2019-03-21T23:38:20.370Z,100.00
2019-03-21T23:40:47.892Z,100.00
2019-03-21T23:43:15.356Z,100.00
2019-03-21T23:45:42.869Z,100.00
2019-03-21T23:48:10.351Z,100.00
2019-03-21T23:50:37.842Z,100.00
2019-03-21T23:53:05.317Z,100.00
2019-03-21T23:55:32.912Z,100.00
2019-03-21T23:58:00.440Z,100.00
